This is the latest recevied weather packets stored in our database for station/object KB9GXK. If no packets are shown the sender has not sent any weather packets the latest 10 day(s).
| Time | Temp. | Humidity | Pressure | Rain* | Wind** | Luminosity | Snow |
|---|---|---|---|---|---|---|---|
| 1777441939 | 11.67° C | 72% | 1013.3 hPa | 0 mm | - | 0 W/m² | - |
| 1777441634 | 11.67° C | 73% | 1013 hPa | 0 mm | - | 0 W/m² | - |
| 1777441330 | 12.22° C | 73% | 1013.3 hPa | 0 mm | - | 0 W/m² | - |
| 1777441025 | 12.22° C | 72% | 1013.2 hPa | 0 mm | - | 0 W/m² | - |
| 1777440722 | 11.67° C | 74% | 1013.4 hPa | 0 mm | - | 0 W/m² | - |
| 1777440416 | 11.67° C | 74% | 1013.6 hPa | 0 mm | - | 0 W/m² | - |
| 1777440114 | 11.67° C | 74% | 1013.4 hPa | 0 mm | - | 0 W/m² | - |
| 1777439809 | 12.22° C | 74% | 1013.8 hPa | 0 mm | - | 0 W/m² | - |
| 1777439505 | 12.22° C | 73% | 1013.7 hPa | 0 mm | - | 0 W/m² | - |
| 1777439200 | 12.22° C | 74% | 1013.6 hPa | 0 mm | - | 0 W/m² | - |
| 1777438898 | 12.22° C | 73% | 1013.7 hPa | 0 mm | - | 0 W/m² | - |
| 1777438595 | 12.22° C | 72% | 1013.9 hPa | 0 mm | - | 0 W/m² | - |
| 1777437986 | 12.78° C | 71% | 1014 hPa | 0 mm | - | 0 W/m² | - |
| 1777437380 | 12.78° C | 70% | 1013.9 hPa | 0 mm | - | 0 W/m² | - |
| 1777437076 | 12.78° C | 71% | 1014.1 hPa | 0 mm | - | 0 W/m² | - |
| 1777432827 | 13.89° C | 65% | 1013.7 hPa | 0 mm | - | 0 W/m² | - |
| 1777431615 | 14.44° C | 64% | 1014 hPa | 0 mm | - | 0 W/m² | - |
| 1777429181 | 13.89° C | 67% | 1013.8 hPa | 0 mm | - | 0 W/m² | - |
| 1777428574 | 13.89° C | 67% | 1013.6 hPa | 0 mm | - | 0 W/m² | - |
| 1777425840 | 14.44° C | 63% | 1012.9 hPa | 0 mm | - | 0 W/m² | - |
| 1777425536 | 15° C | 63% | 1013 hPa | 0 mm | - | 0 W/m² | - |
| 1777424319 | 15.56° C | 60% | 1012.9 hPa | 0 mm | - | 1 W/m² | - |
| 1777423408 | 16.11° C | 58% | 1012.5 hPa | 0 mm | - | 3 W/m² | - |
| 1777422803 | 16.11° C | 57% | 1012.9 hPa | 0 mm | - | 7 W/m² | - |
| 1777421285 | 16.67° C | 55% | 1012.8 hPa | 0 mm | - | 23 W/m² | - |
* Rain latest hour (hover to see other rain measurements)
** Current wind speed in m/s (hover to see current wind gust speed)